x

Halibut Bank (46146) Wave Buoy

1:00am - Wed 5th Aug 2015 All times are PDT. -7 hours from GMT.

  • Sig Wave height 0.3ft
  • Peak Period 4s
  • Wind
    4mph
  • Sea Temp 62°f
  • 空気 Temp 63°f
  • Sea Pressure 1014.8mb
  • Halibut Bank
  • Halibut Bank

More Historic Weather Station data

Upgrade to MSW Pro to gain access to the past 30 days of data for over 8000 Wavebouys and Weather Stations around the globe.

Join Pro

Comparision Forecast

View Surf forecast
   
Wed 08/05 1:00am 0.3ft 4s 4
mph
1014.8mb 62f 63f
12:00am 0.3ft 3s  -  2 mph 1014.5mb 64f 64f
Tue 08/04 11:00pm 0.3ft 6s  -  2 mph 1014.2mb 65f 64f
10:00pm 0.3ft 3s 2
mph
1013.9mb 64f 64f
9:00pm 0.3ft 6s 2
mph
1013.8mb 64f 64f
8:00pm 0.3ft 3s  -  2 mph 1013.9mb 63f 64f
7:00pm 0.7ft 4s 2
mph
1013.7mb 64f 64f
6:00pm 0.3ft 6s 2
mph
1014.2mb 64f 65f
5:00pm 0.7ft 6s 4
mph
1014.6mb 64f 65f
4:00pm 0.7ft 3s 2 4 mph 1015.1mb 64f 65f
3:00pm 0.7ft 3s  -  2 mph 1015.4mb 64f 65f
2:00pm 1ft 3s  -  2 mph 1015.6mb 62f 64f
1:00pm 1.3ft 3s 4
mph
1015.8mb 60f 62f
12:00pm 1.3ft 4s 9 11 mph 1015.6mb 59f 62f
11:00am 1.3ft 4s 11 13 mph 1015.3mb 59f 62f
10:00am 1.6ft 3s 11 16 mph 1015.2mb 60f 61f
9:00am 1.6ft 4s 13 16 mph 1015.1mb 60f 61f
8:00am 2.5ft 4s 16 18 mph 1014.9mb 60f 61f
7:00am 2.5ft 4s 18 20 mph 1014.7mb 61f 61f
6:00am 2.5ft 4s 16 18 mph 1014.6mb 61f 62f
5:00am 2.5ft 4s 18 20 mph 1014.2mb 62f 62f
4:00am 2.5ft 4s 18 22 mph 1013.6mb 63f 63f
3:00am 2.5ft 4s 20 22 mph 1013.7mb 64f 64f
2:00am 2.5ft 4s 20 25 mph 1013.2mb 65f 65f
1:00am 2ft 4s 18 20 mph 1013.1mb 66f 65f
12:00am 1.6ft 4s 16 18 mph 1012.8mb 66f 67f
Mon 08/03 11:00pm 2ft 3s 20 22 mph 1012.3mb 65f 67f
10:00pm 2ft 3s 18 22 mph 1012.3mb 65f 67f
9:00pm 1.6ft 3s 18 22 mph 1011.8mb 65f 67f
8:00pm 1.6ft 3s 18 20 mph 1011.3mb 63f 67f
7:00pm 1.6ft 3s 16 18 mph 1011.2mb 64f 68f
6:00pm 1ft 2s 16 18 mph 1011.3mb 66f 68f
5:00pm 0.7ft 6s 9 11 mph 1011.8mb 67f 69f
4:00pm 0.7ft 3s 7 9 mph 1012.2mb 67f 68f
3:00pm 0.7ft 3s 7
mph
1012.5mb 68f 68f
2:00pm 1ft 3s 4 7 mph 1012.6mb 69f 66f
1:00pm 1ft 3s  -  2 mph 1012.6mb 69f 66f
12:00pm 1ft 3s  -  2 mph 1012.5mb 68f 67f
11:00am 0.7ft 3s 2
mph
1012.6mb 66f 65f
10:00am 1ft 3s 7 9 mph 1012.2mb 65f 65f
9:00am 1ft 3s  -  2 mph 1011.9mb 65f 65f
8:00am 1.3ft 3s 7 9 mph 1011.8mb 65f 65f
7:00am 1ft 3s 9 11 mph 1011.5mb 65f 65f
6:00am 1.3ft 3s 7 9 mph 1011.2mb 65f 65f
5:00am 1.3ft 3s 11 13 mph 1010.9mb 65f 66f
4:00am 1ft 3s 9 11 mph 1010.7mb 65f 66f
3:00am 0.3ft 2s 9
mph
1010.7mb 66f 65f
2:00am 0.3ft 3s 7 9 mph 1010.8mb 66f 67f
1:00am 0.3ft 3s 2 4 mph 1011.3mb 66f 67f
12:00am 0.3ft 3s 2 4 mph 1011.2mb 66f 68f
Sun 08/02 11:00pm 0.3ft 5s 4
mph
1011.1mb 66f 68f
10:00pm 0.3ft 3s 4 7 mph 1011mb 66f 67f
9:00pm 0.7ft 6s 4 9 mph 1011mb 67f 70f
8:00pm 0.7ft 3s 2
mph
1010.9mb 67f 69f
7:00pm 0.7ft 3s 2 4 mph 1011.2mb 67f 69f
6:00pm 0.7ft 3s  -  2 mph 1011.3mb 67f 69f
5:00pm 1ft 3s 2 4 mph 1011.8mb 67f 69f
4:00pm 1ft 3s 4 7 mph 1012.2mb 66f 68f
3:00pm 1.3ft 3s 4 7 mph 1012.8mb 66f 67f
2:00pm 1.3ft 4s 9
mph
1013.4mb 65f 66f
1:00pm 1.6ft 4s 11 13 mph 1013.8mb 65f 65f
12:00pm 1.6ft 4s 13 16 mph 1013.9mb 65f 65f
11:00am 1.6ft 4s 13 16 mph 1014mb 65f 65f
10:00am 2ft 4s 13 16 mph 1014.3mb 65f 64f
9:00am 2ft 4s 13 16 mph 1014.4mb 65f 64f
8:00am 2.5ft 4s 16 18 mph 1014.1mb 65f 64f
7:00am 2.5ft 4s 16 18 mph 1013.7mb 65f 65f
6:00am 2.5ft 4s 18 22 mph 1013.2mb 65f 65f
5:00am 2.5ft 4s 18 20 mph 1013mb 65f 65f
4:00am 2.5ft 4s 20 22 mph 1013mb 65f 66f
3:00am 2ft 4s 18 22 mph 1012.7mb 66f 66f
2:00am 2.5ft 4s 18 20 mph 1012.5mb 66f 67f
1:00am 2ft 3s 20 25 mph 1012.4mb 67f 68f
12:00am 1.6ft 3s 18 22 mph 1012.4mb 67f 69f
Sat 08/01 11:00pm 1.6ft 3s 18 22 mph 1012.3mb 67f 70f
10:00pm 1ft 3s 20 22 mph 1012.3mb 68f 71f
9:00pm 1.3ft 3s 11 13 mph 1012.6mb 68f 71f
8:00pm 1.3ft 3s 13 16 mph 1012.3mb 67f 70f
7:00pm 1.3ft 3s 11 13 mph 1012.5mb 69f 71f
6:00pm 1.3ft 3s 11 13 mph 1012.7mb 68f 70f
5:00pm 1.3ft 3s 9
mph
1013.4mb 68f 71f
4:00pm 1ft 3s 9 11 mph 1014.1mb 68f 69f
3:00pm 1ft 3s 11 13 mph 1014.7mb 68f 69f
2:00pm 1.3ft 3s 9 11 mph 1015.6mb 67f 68f
1:00pm 2ft 4s 11 13 mph 1015.7mb 67f 67f
12:00pm 2ft 4s 13 16 mph 1016.3mb 67f 66f
11:00am 2ft 4s 16 18 mph 1016.6mb 67f 66f
10:00am 2.5ft 4s 18 20 mph 1016.5mb 65f 65f